sensor_id;sensor_type;location;lat;lon;timestamp;temperature;humidity
64396;DHT22;50717;53.360;6.290;2022-07-05T00:02:02;13.40;99.90
64396;DHT22;50717;53.360;6.290;2022-07-05T00:04:27;13.20;99.90
64396;DHT22;50717;53.360;6.290;2022-07-05T00:06:53;13.80;99.90
64396;DHT22;50717;53.360;6.290;2022-07-05T00:09:37;13.50;99.90
64396;DHT22;50717;53.360;6.290;2022-07-05T00:12:03;13.60;99.90
64396;DHT22;50717;53.360;6.290;2022-07-05T00:14:30;11.10;99.90
64396;DHT22;50717;53.360;6.290;2022-07-05T00:16:56;13.30;99.90
64396;DHT22;50717;53.360;6.290;2022-07-05T00:19:21;13.60;99.90
64396;DHT22;50717;53.360;6.290;2022-07-05T00:21:47;13.30;99.90
64396;DHT22;50717;53.360;6.290;2022-07-05T00:24:13;13.60;99.90
64396;DHT22;50717;53.360;6.290;2022-07-05T00:26:38;13.40;99.90
64396;DHT22;50717;53.360;6.290;2022-07-05T00:29:04;13.70;99.90
64396;DHT22;50717;53.360;6.290;2022-07-05T00:31:30;13.30;99.90
64396;DHT22;50717;53.360;6.290;2022-07-05T00:33:55;14.20;99.90
64396;DHT22;50717;53.360;6.290;2022-07-05T00:36:21;13.50;99.90
64396;DHT22;50717;53.360;6.290;2022-07-05T00:38:47;13.70;99.90
64396;DHT22;50717;53.360;6.290;2022-07-05T00:41:12;13.50;99.90
64396;DHT22;50717;53.360;6.290;2022-07-05T00:43:54;13.30;99.90
64396;DHT22;50717;53.360;6.290;2022-07-05T00:46:20;13.40;99.90
64396;DHT22;50717;53.360;6.290;2022-07-05T00:48:46;13.10;99.90
64396;DHT22;50717;53.360;6.290;2022-07-05T00:51:11;13.50;99.90
64396;DHT22;50717;53.360;6.290;2022-07-05T00:53:37;13.60;99.90
64396;DHT22;50717;53.360;6.290;2022-07-05T00:56:04;13.40;99.90
64396;DHT22;50717;53.360;6.290;2022-07-05T00:58:32;12.80;99.90
64396;DHT22;50717;53.360;6.290;2022-07-05T01:00:59;13.10;99.90
64396;DHT22;50717;53.360;6.290;2022-07-05T01:03:26;13.50;99.90
64396;DHT22;50717;53.360;6.290;2022-07-05T01:05:54;12.90;99.90
64396;DHT22;50717;53.360;6.290;2022-07-05T01:08:19;13.00;99.90
64396;DHT22;50717;53.360;6.290;2022-07-05T01:10:46;12.60;99.90
64396;DHT22;50717;53.360;6.290;2022-07-05T01:13:13;12.90;99.90
64396;DHT22;50717;53.360;6.290;2022-07-05T01:15:39;12.80;99.90
64396;DHT22;50717;53.360;6.290;2022-07-05T01:18:06;12.50;99.90
64396;DHT22;50717;53.360;6.290;2022-07-05T01:20:33;12.50;99.90
64396;DHT22;50717;53.360;6.290;2022-07-05T01:22:59;12.30;99.90
64396;DHT22;50717;53.360;6.290;2022-07-05T01:25:29;12.40;99.90
64396;DHT22;50717;53.360;6.290;2022-07-05T01:27:56;12.50;99.90
64396;DHT22;50717;53.360;6.290;2022-07-05T01:30:23;12.40;99.90
64396;DHT22;50717;53.360;6.290;2022-07-05T01:32:49;12.40;99.90
64396;DHT22;50717;53.360;6.290;2022-07-05T01:35:17;12.30;99.90
64396;DHT22;50717;53.360;6.290;2022-07-05T01:37:50;12.00;99.90
64396;DHT22;50717;53.360;6.290;2022-07-05T01:40:17;12.10;99.90
64396;DHT22;50717;53.360;6.290;2022-07-05T01:42:43;12.60;99.90
64396;DHT22;50717;53.360;6.290;2022-07-05T01:45:09;12.50;99.90
64396;DHT22;50717;53.360;6.290;2022-07-05T01:47:36;12.20;99.90
64396;DHT22;50717;53.360;6.290;2022-07-05T01:50:05;12.30;99.90
64396;DHT22;50717;53.360;6.290;2022-07-05T01:52:32;11.90;99.90
64396;DHT22;50717;53.360;6.290;2022-07-05T01:54:59;11.70;99.90
64396;DHT22;50717;53.360;6.290;2022-07-05T01:57:26;12.10;99.90
64396;DHT22;50717;53.360;6.290;2022-07-05T01:59:52;12.50;99.90
64396;DHT22;50717;53.360;6.290;2022-07-05T02:02:18;11.60;99.90
64396;DHT22;50717;53.360;6.290;2022-07-05T02:04:43;11.80;99.90
64396;DHT22;50717;53.360;6.290;2022-07-05T02:07:09;11.90;99.90
64396;DHT22;50717;53.360;6.290;2022-07-05T02:09:35;11.60;99.90
64396;DHT22;50717;53.360;6.290;2022-07-05T02:12:03;12.50;99.90
64396;DHT22;50717;53.360;6.290;2022-07-05T02:14:29;11.50;99.90
64396;DHT22;50717;53.360;6.290;2022-07-05T02:16:55;11.60;99.90
64396;DHT22;50717;53.360;6.290;2022-07-05T02:19:21;12.00;99.90
64396;DHT22;50717;53.360;6.290;2022-07-05T02:21:46;11.20;99.90
64396;DHT22;50717;53.360;6.290;2022-07-05T02:24:12;11.40;99.90
64396;DHT22;50717;53.360;6.290;2022-07-05T02:26:38;11.70;99.90
64396;DHT22;50717;53.360;6.290;2022-07-05T02:29:04;11.00;99.90
64396;DHT22;50717;53.360;6.290;2022-07-05T02:31:30;12.10;99.90
64396;DHT22;50717;53.360;6.290;2022-07-05T02:33:56;11.30;99.90
64396;DHT22;50717;53.360;6.290;2022-07-05T02:36:22;12.00;99.90
64396;DHT22;50717;53.360;6.290;2022-07-05T02:38:48;11.40;99.90
64396;DHT22;50717;53.360;6.290;2022-07-05T02:41:14;11.20;99.90
64396;DHT22;50717;53.360;6.290;2022-07-05T02:43:40;11.50;99.90
64396;DHT22;50717;53.360;6.290;2022-07-05T02:46:06;11.30;99.90
64396;DHT22;50717;53.360;6.290;2022-07-05T02:48:32;11.40;99.90
64396;DHT22;50717;53.360;6.290;2022-07-05T02:50:58;12.20;99.90
64396;DHT22;50717;53.360;6.290;2022-07-05T02:53:24;11.50;99.90
64396;DHT22;50717;53.360;6.290;2022-07-05T02:55:50;12.00;99.90
64396;DHT22;50717;53.360;6.290;2022-07-05T02:58:16;11.70;99.90
64396;DHT22;50717;53.360;6.290;2022-07-05T03:00:42;11.10;99.90
64396;DHT22;50717;53.360;6.290;2022-07-05T03:03:09;11.30;99.90
64396;DHT22;50717;53.360;6.290;2022-07-05T03:05:35;11.40;99.90
64396;DHT22;50717;53.360;6.290;2022-07-05T03:08:00;11.30;99.90
64396;DHT22;50717;53.360;6.290;2022-07-05T03:10:26;11.30;99.90
64396;DHT22;50717;53.360;6.290;2022-07-05T03:12:52;11.00;99.90
64396;DHT22;50717;53.360;6.290;2022-07-05T03:15:17;11.10;99.90
64396;DHT22;50717;53.360;6.290;2022-07-05T03:17:43;11.50;99.90
64396;DHT22;50717;53.360;6.290;2022-07-05T03:20:09;12.20;99.90
64396;DHT22;50717;53.360;6.290;2022-07-05T03:22:35;11.20;99.90
64396;DHT22;50717;53.360;6.290;2022-07-05T03:25:01;11.70;99.90
64396;DHT22;50717;53.360;6.290;2022-07-05T03:27:28;11.10;99.90
64396;DHT22;50717;53.360;6.290;2022-07-05T03:29:53;11.60;99.90
64396;DHT22;50717;53.360;6.290;2022-07-05T03:32:19;11.30;99.90
64396;DHT22;50717;53.360;6.290;2022-07-05T03:34:45;11.40;99.90
64396;DHT22;50717;53.360;6.290;2022-07-05T03:37:10;11.60;99.90
64396;DHT22;50717;53.360;6.290;2022-07-05T03:39:36;11.70;99.90
64396;DHT22;50717;53.360;6.290;2022-07-05T03:42:02;12.60;99.90
64396;DHT22;50717;53.360;6.290;2022-07-05T03:44:27;11.90;99.90
64396;DHT22;50717;53.360;6.290;2022-07-05T03:46:53;12.80;99.90
64396;DHT22;50717;53.360;6.290;2022-07-05T03:49:19;12.10;99.90
64396;DHT22;50717;53.360;6.290;2022-07-05T03:51:45;12.10;99.90
64396;DHT22;50717;53.360;6.290;2022-07-05T03:54:10;12.00;99.90
64396;DHT22;50717;53.360;6.290;2022-07-05T03:56:36;12.20;99.90
64396;DHT22;50717;53.360;6.290;2022-07-05T03:59:02;12.10;99.90
64396;DHT22;50717;53.360;6.290;2022-07-05T04:01:27;12.10;99.90
64396;DHT22;50717;53.360;6.290;2022-07-05T04:03:53;12.20;99.90
64396;DHT22;50717;53.360;6.290;2022-07-05T04:06:19;11.90;99.90
64396;DHT22;50717;53.360;6.290;2022-07-05T04:08:44;12.10;99.90
64396;DHT22;50717;53.360;6.290;2022-07-05T04:11:10;12.20;99.90
64396;DHT22;50717;53.360;6.290;2022-07-05T04:13:38;12.10;99.90
64396;DHT22;50717;53.360;6.290;2022-07-05T04:16:05;12.20;99.90
64396;DHT22;50717;53.360;6.290;2022-07-05T04:18:31;12.30;99.90
64396;DHT22;50717;53.360;6.290;2022-07-05T04:20:56;12.20;99.90
64396;DHT22;50717;53.360;6.290;2022-07-05T04:23:22;12.10;99.90
64396;DHT22;50717;53.360;6.290;2022-07-05T04:25:48;11.90;99.90
64396;DHT22;50717;53.360;6.290;2022-07-05T04:28:13;12.20;99.90
64396;DHT22;50717;53.360;6.290;2022-07-05T04:30:39;12.10;99.90
64396;DHT22;50717;53.360;6.290;2022-07-05T04:33:05;12.50;99.90
64396;DHT22;50717;53.360;6.290;2022-07-05T04:35:30;12.30;99.90
64396;DHT22;50717;53.360;6.290;2022-07-05T04:37:56;12.40;99.90
64396;DHT22;50717;53.360;6.290;2022-07-05T04:40:22;12.20;99.90
64396;DHT22;50717;53.360;6.290;2022-07-05T04:42:47;12.60;99.90
64396;DHT22;50717;53.360;6.290;2022-07-05T04:45:13;12.60;99.90
64396;DHT22;50717;53.360;6.290;2022-07-05T04:47:39;12.50;99.90
64396;DHT22;50717;53.360;6.290;2022-07-05T04:50:05;12.70;99.90
64396;DHT22;50717;53.360;6.290;2022-07-05T04:52:31;12.50;99.90
64396;DHT22;50717;53.360;6.290;2022-07-05T04:54:57;12.80;99.90
64396;DHT22;50717;53.360;6.290;2022-07-05T04:57:22;13.00;99.90
64396;DHT22;50717;53.360;6.290;2022-07-05T04:59:48;13.20;99.90
64396;DHT22;50717;53.360;6.290;2022-07-05T05:02:14;13.30;99.90
64396;DHT22;50717;53.360;6.290;2022-07-05T05:04:40;13.30;99.90
64396;DHT22;50717;53.360;6.290;2022-07-05T05:07:06;13.30;99.90
64396;DHT22;50717;53.360;6.290;2022-07-05T05:09:32;13.90;99.90
64396;DHT22;50717;53.360;6.290;2022-07-05T05:11:57;13.80;99.90
64396;DHT22;50717;53.360;6.290;2022-07-05T05:14:23;14.20;99.90
64396;DHT22;50717;53.360;6.290;2022-07-05T05:16:49;15.10;99.90
64396;DHT22;50717;53.360;6.290;2022-07-05T05:19:15;14.40;99.90
64396;DHT22;50717;53.360;6.290;2022-07-05T05:21:40;14.30;99.90
64396;DHT22;50717;53.360;6.290;2022-07-05T05:24:06;15.00;99.90
64396;DHT22;50717;53.360;6.290;2022-07-05T05:26:32;15.10;99.90
64396;DHT22;50717;53.360;6.290;2022-07-05T05:28:58;15.10;99.90
64396;DHT22;50717;53.360;6.290;2022-07-05T05:31:23;15.30;99.90
64396;DHT22;50717;53.360;6.290;2022-07-05T05:33:49;15.30;99.90
64396;DHT22;50717;53.360;6.290;2022-07-05T05:36:15;15.10;99.90
64396;DHT22;50717;53.360;6.290;2022-07-05T05:38:40;14.90;99.90
64396;DHT22;50717;53.360;6.290;2022-07-05T05:41:06;14.90;99.90
64396;DHT22;50717;53.360;6.290;2022-07-05T05:43:32;14.90;99.90
64396;DHT22;50717;53.360;6.290;2022-07-05T05:45:58;14.90;99.90
64396;DHT22;50717;53.360;6.290;2022-07-05T05:48:24;17.90;99.90
64396;DHT22;50717;53.360;6.290;2022-07-05T05:50:50;15.70;99.90
64396;DHT22;50717;53.360;6.290;2022-07-05T05:53:17;15.60;99.90
64396;DHT22;50717;53.360;6.290;2022-07-05T05:55:43;15.90;99.90
64396;DHT22;50717;53.360;6.290;2022-07-05T05:58:12;15.90;99.90
64396;DHT22;50717;53.360;6.290;2022-07-05T06:00:38;15.90;99.90
64396;DHT22;50717;53.360;6.290;2022-07-05T06:03:04;16.00;99.90
64396;DHT22;50717;53.360;6.290;2022-07-05T06:05:29;16.00;99.90
64396;DHT22;50717;53.360;6.290;2022-07-05T06:07:56;16.30;99.90
64396;DHT22;50717;53.360;6.290;2022-07-05T06:10:30;16.30;99.90
64396;DHT22;50717;53.360;6.290;2022-07-05T06:12:59;16.70;99.90
64396;DHT22;50717;53.360;6.290;2022-07-05T06:15:25;16.20;99.90
64396;DHT22;50717;53.360;6.290;2022-07-05T06:17:51;16.30;99.90
64396;DHT22;50717;53.360;6.290;2022-07-05T06:20:19;16.30;99.90
64396;DHT22;50717;53.360;6.290;2022-07-05T06:22:46;16.80;99.90
64396;DHT22;50717;53.360;6.290;2022-07-05T06:25:11;16.60;99.90
64396;DHT22;50717;53.360;6.290;2022-07-05T06:27:41;16.70;99.90
64396;DHT22;50717;53.360;6.290;2022-07-05T06:30:08;16.60;99.90
64396;DHT22;50717;53.360;6.290;2022-07-05T06:32:34;16.90;99.90
64396;DHT22;50717;53.360;6.290;2022-07-05T06:34:59;17.20;99.90
64396;DHT22;50717;53.360;6.290;2022-07-05T06:37:25;16.80;99.90
64396;DHT22;50717;53.360;6.290;2022-07-05T06:39:50;17.40;99.90
64396;DHT22;50717;53.360;6.290;2022-07-05T06:42:16;17.10;99.90
64396;DHT22;50717;53.360;6.290;2022-07-05T06:44:42;17.30;99.90
64396;DHT22;50717;53.360;6.290;2022-07-05T06:47:09;17.50;99.90
64396;DHT22;50717;53.360;6.290;2022-07-05T06:49:35;17.70;99.90
64396;DHT22;50717;53.360;6.290;2022-07-05T06:52:00;18.10;99.90
64396;DHT22;50717;53.360;6.290;2022-07-05T06:54:26;18.30;99.90
64396;DHT22;50717;53.360;6.290;2022-07-05T06:56:52;18.50;99.90
64396;DHT22;50717;53.360;6.290;2022-07-05T06:59:21;18.30;99.90
64396;DHT22;50717;53.360;6.290;2022-07-05T07:01:47;17.90;99.90
64396;DHT22;50717;53.360;6.290;2022-07-05T07:04:12;17.50;99.90
64396;DHT22;50717;53.360;6.290;2022-07-05T07:06:38;17.60;99.90
64396;DHT22;50717;53.360;6.290;2022-07-05T07:09:03;17.60;99.90
64396;DHT22;50717;53.360;6.290;2022-07-05T07:11:46;17.00;99.90
64396;DHT22;50717;53.360;6.290;2022-07-05T07:14:12;17.30;99.90
64396;DHT22;50717;53.360;6.290;2022-07-05T07:16:37;17.20;99.90
64396;DHT22;50717;53.360;6.290;2022-07-05T07:19:03;17.20;99.90
64396;DHT22;50717;53.360;6.290;2022-07-05T07:21:29;17.80;99.90
64396;DHT22;50717;53.360;6.290;2022-07-05T07:23:54;17.80;99.90
64396;DHT22;50717;53.360;6.290;2022-07-05T07:26:20;18.00;99.90
64396;DHT22;50717;53.360;6.290;2022-07-05T07:28:46;17.80;99.90
64396;DHT22;50717;53.360;6.290;2022-07-05T07:31:11;18.10;99.90
64396;DHT22;50717;53.360;6.290;2022-07-05T07:33:37;17.70;99.90
64396;DHT22;50717;53.360;6.290;2022-07-05T07:36:03;18.00;99.90
64396;DHT22;50717;53.360;6.290;2022-07-05T07:38:29;17.80;99.90
64396;DHT22;50717;53.360;6.290;2022-07-05T07:40:54;18.10;99.90
64396;DHT22;50717;53.360;6.290;2022-07-05T07:43:21;18.10;99.90
64396;DHT22;50717;53.360;6.290;2022-07-05T07:45:48;18.50;99.90
64396;DHT22;50717;53.360;6.290;2022-07-05T07:48:13;18.30;99.90
64396;DHT22;50717;53.360;6.290;2022-07-05T07:50:39;18.20;99.90
64396;DHT22;50717;53.360;6.290;2022-07-05T07:53:05;18.30;99.90
64396;DHT22;50717;53.360;6.290;2022-07-05T07:55:31;17.90;99.90
64396;DHT22;50717;53.360;6.290;2022-07-05T07:57:56;17.90;99.90
64396;DHT22;50717;53.360;6.290;2022-07-05T08:00:22;17.90;99.90
64396;DHT22;50717;53.360;6.290;2022-07-05T08:02:48;17.70;99.90
64396;DHT22;50717;53.360;6.290;2022-07-05T08:05:13;17.70;99.90
64396;DHT22;50717;53.360;6.290;2022-07-05T08:07:39;16.70;99.90
64396;DHT22;50717;53.360;6.290;2022-07-05T08:10:05;17.60;99.90
64396;DHT22;50717;53.360;6.290;2022-07-05T08:12:31;17.50;99.90
64396;DHT22;50717;53.360;6.290;2022-07-05T08:14:57;17.60;99.90
64396;DHT22;50717;53.360;6.290;2022-07-05T08:17:23;18.30;99.90
64396;DHT22;50717;53.360;6.290;2022-07-05T08:19:48;17.60;99.90
64396;DHT22;50717;53.360;6.290;2022-07-05T08:22:32;17.90;99.90
64396;DHT22;50717;53.360;6.290;2022-07-05T08:24:58;17.30;99.90
64396;DHT22;50717;53.360;6.290;2022-07-05T08:27:24;17.70;99.90
64396;DHT22;50717;53.360;6.290;2022-07-05T08:29:50;17.80;99.90
64396;DHT22;50717;53.360;6.290;2022-07-05T08:32:16;17.90;99.90
64396;DHT22;50717;53.360;6.290;2022-07-05T08:34:42;17.80;99.90
64396;DHT22;50717;53.360;6.290;2022-07-05T08:37:08;17.50;99.90
64396;DHT22;50717;53.360;6.290;2022-07-05T08:39:34;17.90;99.90
64396;DHT22;50717;53.360;6.290;2022-07-05T08:42:00;17.90;99.90
64396;DHT22;50717;53.360;6.290;2022-07-05T08:44:28;18.10;99.90
64396;DHT22;50717;53.360;6.290;2022-07-05T08:46:56;18.00;99.90
64396;DHT22;50717;53.360;6.290;2022-07-05T08:49:25;16.70;99.90
64396;DHT22;50717;53.360;6.290;2022-07-05T08:51:51;18.10;99.90
64396;DHT22;50717;53.360;6.290;2022-07-05T08:54:17;18.10;99.90
64396;DHT22;50717;53.360;6.290;2022-07-05T08:56:44;18.20;99.90
64396;DHT22;50717;53.360;6.290;2022-07-05T08:59:10;18.10;99.90
64396;DHT22;50717;53.360;6.290;2022-07-05T09:01:36;17.80;99.90
64396;DHT22;50717;53.360;6.290;2022-07-05T09:04:06;17.90;99.90
64396;DHT22;50717;53.360;6.290;2022-07-05T09:06:36;18.00;99.90
64396;DHT22;50717;53.360;6.290;2022-07-05T09:09:03;18.70;99.90
64396;DHT22;50717;53.360;6.290;2022-07-05T09:11:36;18.50;99.90
64396;DHT22;50717;53.360;6.290;2022-07-05T09:14:04;18.70;99.90
64396;DHT22;50717;53.360;6.290;2022-07-05T09:16:31;18.20;99.90
64396;DHT22;50717;53.360;6.290;2022-07-05T09:19:05;18.20;99.90
64396;DHT22;50717;53.360;6.290;2022-07-05T09:21:31;17.90;99.90
64396;DHT22;50717;53.360;6.290;2022-07-05T09:24:05;18.50;99.90
64396;DHT22;50717;53.360;6.290;2022-07-05T09:26:39;18.20;99.90
64396;DHT22;50717;53.360;6.290;2022-07-05T09:29:07;18.00;99.90
64396;DHT22;50717;53.360;6.290;2022-07-05T09:31:42;18.40;99.90
64396;DHT22;50717;53.360;6.290;2022-07-05T09:34:09;18.30;99.90
64396;DHT22;50717;53.360;6.290;2022-07-05T09:36:54;17.90;99.90
64396;DHT22;50717;53.360;6.290;2022-07-05T09:47:18;18.40;99.90
64396;DHT22;50717;53.360;6.290;2022-07-05T09:49:49;18.70;99.90
64396;DHT22;50717;53.360;6.290;2022-07-05T09:52:34;18.40;99.90
64396;DHT22;50717;53.360;6.290;2022-07-05T09:55:16;18.80;99.90
64396;DHT22;50717;53.360;6.290;2022-07-05T09:57:44;18.80;99.90
64396;DHT22;50717;53.360;6.290;2022-07-05T10:02:48;19.60;99.90
64396;DHT22;50717;53.360;6.290;2022-07-05T10:07:46;19.20;99.90
64396;DHT22;50717;53.360;6.290;2022-07-05T10:10:18;19.30;99.90
64396;DHT22;50717;53.360;6.290;2022-07-05T10:12:47;19.40;99.90
64396;DHT22;50717;53.360;6.290;2022-07-05T10:15:15;19.70;99.90
64396;DHT22;50717;53.360;6.290;2022-07-05T10:17:50;19.40;99.90
64396;DHT22;50717;53.360;6.290;2022-07-05T10:20:31;19.10;99.90
64396;DHT22;50717;53.360;6.290;2022-07-05T10:22:58;18.90;99.90
64396;DHT22;50717;53.360;6.290;2022-07-05T10:25:27;19.00;99.90
64396;DHT22;50717;53.360;6.290;2022-07-05T10:27:53;19.10;99.90
64396;DHT22;50717;53.360;6.290;2022-07-05T10:30:23;19.20;99.90
64396;DHT22;50717;53.360;6.290;2022-07-05T10:32:49;18.60;99.90
64396;DHT22;50717;53.360;6.290;2022-07-05T10:35:18;18.70;99.90
64396;DHT22;50717;53.360;6.290;2022-07-05T10:37:45;19.10;99.90
64396;DHT22;50717;53.360;6.290;2022-07-05T10:40:13;18.80;99.90
64396;DHT22;50717;53.360;6.290;2022-07-05T10:42:47;19.20;99.90
64396;DHT22;50717;53.360;6.290;2022-07-05T10:45:32;19.30;99.90
64396;DHT22;50717;53.360;6.290;2022-07-05T10:50:47;19.90;99.90
64396;DHT22;50717;53.360;6.290;2022-07-05T10:53:22;19.80;99.90
64396;DHT22;50717;53.360;6.290;2022-07-05T10:55:54;19.50;99.90
64396;DHT22;50717;53.360;6.290;2022-07-05T10:58:23;19.00;99.90
64396;DHT22;50717;53.360;6.290;2022-07-05T11:03:48;19.10;99.90
64396;DHT22;50717;53.360;6.290;2022-07-05T11:11:34;18.70;99.90
64396;DHT22;50717;53.360;6.290;2022-07-05T11:14:04;18.70;99.90
64396;DHT22;50717;53.360;6.290;2022-07-05T11:16:33;19.00;99.90
64396;DHT22;50717;53.360;6.290;2022-07-05T11:19:06;18.60;99.90
64396;DHT22;50717;53.360;6.290;2022-07-05T11:21:32;18.30;99.90
64396;DHT22;50717;53.360;6.290;2022-07-05T11:24:37;18.40;99.90
64396;DHT22;50717;53.360;6.290;2022-07-05T11:27:12;19.10;99.90
64396;DHT22;50717;53.360;6.290;2022-07-05T11:29:48;18.90;99.90
64396;DHT22;50717;53.360;6.290;2022-07-05T11:32:22;18.90;99.90
64396;DHT22;50717;53.360;6.290;2022-07-05T11:34:51;18.70;99.90
64396;DHT22;50717;53.360;6.290;2022-07-05T11:39:45;19.10;99.90
64396;DHT22;50717;53.360;6.290;2022-07-05T11:42:20;19.00;99.90
64396;DHT22;50717;53.360;6.290;2022-07-05T11:44:50;19.20;99.90
64396;DHT22;50717;53.360;6.290;2022-07-05T11:47:19;18.90;99.90
64396;DHT22;50717;53.360;6.290;2022-07-05T11:49:58;18.60;99.90
64396;DHT22;50717;53.360;6.290;2022-07-05T11:52:28;18.60;99.90
64396;DHT22;50717;53.360;6.290;2022-07-05T11:54:54;18.00;99.90
64396;DHT22;50717;53.360;6.290;2022-07-05T11:57:21;18.20;99.90
64396;DHT22;50717;53.360;6.290;2022-07-05T11:59:47;18.30;99.90
64396;DHT22;50717;53.360;6.290;2022-07-05T12:02:13;18.50;99.90
64396;DHT22;50717;53.360;6.290;2022-07-05T12:04:39;18.20;99.90
64396;DHT22;50717;53.360;6.290;2022-07-05T12:07:05;18.60;99.90
64396;DHT22;50717;53.360;6.290;2022-07-05T12:09:32;18.00;99.90
64396;DHT22;50717;53.360;6.290;2022-07-05T12:12:33;18.50;99.90
64396;DHT22;50717;53.360;6.290;2022-07-05T12:15:10;18.40;99.90
64396;DHT22;50717;53.360;6.290;2022-07-05T12:17:37;18.70;99.90
64396;DHT22;50717;53.360;6.290;2022-07-05T12:20:08;18.50;99.90
64396;DHT22;50717;53.360;6.290;2022-07-05T12:22:37;18.80;99.90
64396;DHT22;50717;53.360;6.290;2022-07-05T12:25:05;19.10;99.90
64396;DHT22;50717;53.360;6.290;2022-07-05T12:27:33;19.10;99.90
64396;DHT22;50717;53.360;6.290;2022-07-05T12:29:59;19.30;99.90
64396;DHT22;50717;53.360;6.290;2022-07-05T12:32:27;19.00;99.90
64396;DHT22;50717;53.360;6.290;2022-07-05T12:34:55;18.90;99.90
64396;DHT22;50717;53.360;6.290;2022-07-05T12:37:26;18.70;99.90
64396;DHT22;50717;53.360;6.290;2022-07-05T12:40:07;18.70;99.90
64396;DHT22;50717;53.360;6.290;2022-07-05T12:42:35;19.30;99.90
64396;DHT22;50717;53.360;6.290;2022-07-05T12:45:15;18.90;99.90
64396;DHT22;50717;53.360;6.290;2022-07-05T12:47:56;19.20;99.90
64396;DHT22;50717;53.360;6.290;2022-07-05T12:50:24;19.30;99.90
64396;DHT22;50717;53.360;6.290;2022-07-05T12:53:10;19.30;99.90
64396;DHT22;50717;53.360;6.290;2022-07-05T12:56:03;19.40;99.90
64396;DHT22;50717;53.360;6.290;2022-07-05T12:58:52;19.40;99.90
64396;DHT22;50717;53.360;6.290;2022-07-05T13:04:13;19.50;99.90
64396;DHT22;50717;53.360;6.290;2022-07-05T13:07:02;19.90;99.90
64396;DHT22;50717;53.360;6.290;2022-07-05T13:12:11;20.40;99.90
64396;DHT22;50717;53.360;6.290;2022-07-05T13:14:47;20.40;99.90
64396;DHT22;50717;53.360;6.290;2022-07-05T13:17:15;20.60;99.90
64396;DHT22;50717;53.360;6.290;2022-07-05T13:19:43;20.40;99.90
64396;DHT22;50717;53.360;6.290;2022-07-05T13:22:09;19.90;99.90
64396;DHT22;50717;53.360;6.290;2022-07-05T13:24:36;19.80;99.90
64396;DHT22;50717;53.360;6.290;2022-07-05T13:27:02;19.50;99.90
64396;DHT22;50717;53.360;6.290;2022-07-05T13:29:29;19.60;99.90
64396;DHT22;50717;53.360;6.290;2022-07-05T13:31:55;19.50;99.90
64396;DHT22;50717;53.360;6.290;2022-07-05T13:34:21;18.90;99.90
64396;DHT22;50717;53.360;6.290;2022-07-05T13:36:52;19.10;99.90
64396;DHT22;50717;53.360;6.290;2022-07-05T13:39:18;19.70;99.90
64396;DHT22;50717;53.360;6.290;2022-07-05T13:41:46;19.50;99.90
64396;DHT22;50717;53.360;6.290;2022-07-05T13:44:12;19.80;99.90
64396;DHT22;50717;53.360;6.290;2022-07-05T13:46:38;19.90;99.90
64396;DHT22;50717;53.360;6.290;2022-07-05T13:49:03;20.10;99.90
64396;DHT22;50717;53.360;6.290;2022-07-05T13:51:29;19.50;99.90
64396;DHT22;50717;53.360;6.290;2022-07-05T13:53:55;19.40;99.90
64396;DHT22;50717;53.360;6.290;2022-07-05T13:56:20;19.10;99.90
64396;DHT22;50717;53.360;6.290;2022-07-05T13:58:47;19.50;99.90
64396;DHT22;50717;53.360;6.290;2022-07-05T14:01:12;19.60;99.90
64396;DHT22;50717;53.360;6.290;2022-07-05T14:03:38;20.00;99.90
64396;DHT22;50717;53.360;6.290;2022-07-05T14:06:04;20.00;99.90
64396;DHT22;50717;53.360;6.290;2022-07-05T14:08:29;20.20;99.90
64396;DHT22;50717;53.360;6.290;2022-07-05T14:10:56;20.50;99.90
64396;DHT22;50717;53.360;6.290;2022-07-05T14:13:24;20.80;99.90
64396;DHT22;50717;53.360;6.290;2022-07-05T14:15:50;20.70;99.90
64396;DHT22;50717;53.360;6.290;2022-07-05T14:18:17;20.20;99.90
64396;DHT22;50717;53.360;6.290;2022-07-05T14:20:44;20.30;99.90
64396;DHT22;50717;53.360;6.290;2022-07-05T14:23:14;20.60;99.90
64396;DHT22;50717;53.360;6.290;2022-07-05T14:25:40;19.90;99.90
64396;DHT22;50717;53.360;6.290;2022-07-05T14:28:06;20.00;99.90
64396;DHT22;50717;53.360;6.290;2022-07-05T14:30:37;19.60;99.90
64396;DHT22;50717;53.360;6.290;2022-07-05T14:33:03;20.00;99.90
64396;DHT22;50717;53.360;6.290;2022-07-05T14:35:30;19.70;99.90
64396;DHT22;50717;53.360;6.290;2022-07-05T14:37:56;19.40;99.90
64396;DHT22;50717;53.360;6.290;2022-07-05T14:40:22;19.10;99.90
64396;DHT22;50717;53.360;6.290;2022-07-05T14:42:54;19.60;99.90
64396;DHT22;50717;53.360;6.290;2022-07-05T14:45:20;19.40;99.90
64396;DHT22;50717;53.360;6.290;2022-07-05T14:47:47;19.80;99.90
64396;DHT22;50717;53.360;6.290;2022-07-05T14:50:13;20.00;99.90
64396;DHT22;50717;53.360;6.290;2022-07-05T14:52:40;20.00;99.90
64396;DHT22;50717;53.360;6.290;2022-07-05T14:55:06;20.00;99.90
64396;DHT22;50717;53.360;6.290;2022-07-05T14:57:32;20.20;99.90
64396;DHT22;50717;53.360;6.290;2022-07-05T14:59:57;20.40;99.90
64396;DHT22;50717;53.360;6.290;2022-07-05T15:02:23;20.80;99.90
64396;DHT22;50717;53.360;6.290;2022-07-05T15:04:49;20.80;99.90
64396;DHT22;50717;53.360;6.290;2022-07-05T15:07:15;21.00;99.90
64396;DHT22;50717;53.360;6.290;2022-07-05T15:09:41;21.30;99.90
64396;DHT22;50717;53.360;6.290;2022-07-05T15:12:07;21.70;99.90
64396;DHT22;50717;53.360;6.290;2022-07-05T15:14:33;22.10;99.90
64396;DHT22;50717;53.360;6.290;2022-07-05T15:16:59;22.20;99.90
64396;DHT22;50717;53.360;6.290;2022-07-05T15:19:24;23.00;99.90
64396;DHT22;50717;53.360;6.290;2022-07-05T15:21:50;23.00;99.90
64396;DHT22;50717;53.360;6.290;2022-07-05T15:24:16;23.20;99.90
64396;DHT22;50717;53.360;6.290;2022-07-05T15:26:43;22.50;99.90
64396;DHT22;50717;53.360;6.290;2022-07-05T15:29:09;22.20;99.90
64396;DHT22;50717;53.360;6.290;2022-07-05T15:31:36;22.20;99.90
64396;DHT22;50717;53.360;6.290;2022-07-05T15:34:03;22.00;99.90
64396;DHT22;50717;53.360;6.290;2022-07-05T15:36:30;21.50;99.90
64396;DHT22;50717;53.360;6.290;2022-07-05T15:39:00;21.10;99.90
64396;DHT22;50717;53.360;6.290;2022-07-05T15:41:27;21.20;99.90
64396;DHT22;50717;53.360;6.290;2022-07-05T15:43:53;21.30;99.90
64396;DHT22;50717;53.360;6.290;2022-07-05T15:46:19;21.40;99.90
64396;DHT22;50717;53.360;6.290;2022-07-05T15:48:45;21.50;99.90
64396;DHT22;50717;53.360;6.290;2022-07-05T15:51:11;21.80;99.90
64396;DHT22;50717;53.360;6.290;2022-07-05T15:53:38;22.00;99.90
64396;DHT22;50717;53.360;6.290;2022-07-05T15:56:04;22.40;99.90
64396;DHT22;50717;53.360;6.290;2022-07-05T15:58:31;22.40;99.90
64396;DHT22;50717;53.360;6.290;2022-07-05T16:00:58;22.80;99.90
64396;DHT22;50717;53.360;6.290;2022-07-05T16:03:28;22.30;99.90
64396;DHT22;50717;53.360;6.290;2022-07-05T16:05:55;22.70;99.90